sensor_id;sensor_type;location;lat;lon;timestamp;P1;durP1;ratioP1;P2;durP2;ratioP2
27145;SDS011;17980;51.744;7.190;2023-03-13T00:01:26;20.50;;;3.60;;
27145;SDS011;17980;51.744;7.190;2023-03-13T00:03:55;17.77;;;4.13;;
27145;SDS011;17980;51.744;7.190;2023-03-13T00:06:33;18.47;;;3.63;;
27145;SDS011;17980;51.744;7.190;2023-03-13T00:09:02;20.07;;;3.03;;
27145;SDS011;17980;51.744;7.190;2023-03-13T00:11:31;14.77;;;2.83;;
27145;SDS011;17980;51.744;7.190;2023-03-13T00:13:59;18.43;;;3.13;;
27145;SDS011;17980;51.744;7.190;2023-03-13T00:16:27;16.60;;;3.27;;
27145;SDS011;17980;51.744;7.190;2023-03-13T00:18:56;16.50;;;2.60;;
27145;SDS011;17980;51.744;7.190;2023-03-13T00:21:24;17.27;;;3.27;;
27145;SDS011;17980;51.744;7.190;2023-03-13T00:24:04;17.13;;;3.90;;
27145;SDS011;17980;51.744;7.190;2023-03-13T00:26:32;16.07;;;3.60;;
27145;SDS011;17980;51.744;7.190;2023-03-13T00:28:59;18.80;;;2.70;;
27145;SDS011;17980;51.744;7.190;2023-03-13T00:31:27;19.50;;;3.40;;
27145;SDS011;17980;51.744;7.190;2023-03-13T00:33:57;15.63;;;3.00;;
27145;SDS011;17980;51.744;7.190;2023-03-13T00:39:02;21.90;;;3.47;;
27145;SDS011;17980;51.744;7.190;2023-03-13T00:41:31;19.43;;;3.43;;
27145;SDS011;17980;51.744;7.190;2023-03-13T00:43:59;14.43;;;3.40;;
27145;SDS011;17980;51.744;7.190;2023-03-13T00:46:35;28.10;;;4.67;;
27145;SDS011;17980;51.744;7.190;2023-03-13T00:49:03;19.53;;;4.00;;
27145;SDS011;17980;51.744;7.190;2023-03-13T00:51:30;18.77;;;3.47;;
27145;SDS011;17980;51.744;7.190;2023-03-13T00:53:57;18.43;;;3.33;;
27145;SDS011;17980;51.744;7.190;2023-03-13T00:56:34;16.80;;;3.27;;
27145;SDS011;17980;51.744;7.190;2023-03-13T00:59:02;16.30;;;3.63;;
27145;SDS011;17980;51.744;7.190;2023-03-13T01:04:05;18.47;;;3.80;;
27145;SDS011;17980;51.744;7.190;2023-03-13T01:06:34;17.27;;;3.23;;
27145;SDS011;17980;51.744;7.190;2023-03-13T01:09:12;20.30;;;4.03;;
27145;SDS011;17980;51.744;7.190;2023-03-13T01:11:41;21.33;;;3.10;;
27145;SDS011;17980;51.744;7.190;2023-03-13T01:14:11;16.97;;;3.23;;
27145;SDS011;17980;51.744;7.190;2023-03-13T01:19:16;18.67;;;2.77;;
27145;SDS011;17980;51.744;7.190;2023-03-13T01:21:44;14.63;;;3.43;;
27145;SDS011;17980;51.744;7.190;2023-03-13T01:24:11;16.63;;;3.23;;
27145;SDS011;17980;51.744;7.190;2023-03-13T01:26:48;15.83;;;3.30;;
27145;SDS011;17980;51.744;7.190;2023-03-13T01:29:16;19.83;;;3.80;;
27145;SDS011;17980;51.744;7.190;2023-03-13T01:31:43;19.53;;;2.97;;
27145;SDS011;17980;51.744;7.190;2023-03-13T01:34:10;19.07;;;4.13;;
27145;SDS011;17980;51.744;7.190;2023-03-13T01:36:37;16.27;;;2.77;;
27145;SDS011;17980;51.744;7.190;2023-03-13T01:39:05;23.23;;;3.60;;
27145;SDS011;17980;51.744;7.190;2023-03-13T01:41:42;17.93;;;3.33;;
27145;SDS011;17980;51.744;7.190;2023-03-13T01:44:13;20.60;;;3.87;;
27145;SDS011;17980;51.744;7.190;2023-03-13T01:46:46;17.60;;;3.50;;
27145;SDS011;17980;51.744;7.190;2023-03-13T01:49:13;18.43;;;3.10;;
27145;SDS011;17980;51.744;7.190;2023-03-13T01:51:52;23.47;;;3.50;;
27145;SDS011;17980;51.744;7.190;2023-03-13T01:54:22;19.53;;;3.60;;
27145;SDS011;17980;51.744;7.190;2023-03-13T01:57:00;27.37;;;4.10;;
27145;SDS011;17980;51.744;7.190;2023-03-13T01:59:31;20.40;;;4.00;;
27145;SDS011;17980;51.744;7.190;2023-03-13T02:02:02;22.70;;;4.03;;
27145;SDS011;17980;51.744;7.190;2023-03-13T02:04:34;21.10;;;3.27;;
27145;SDS011;17980;51.744;7.190;2023-03-13T02:07:11;15.23;;;3.07;;
27145;SDS011;17980;51.744;7.190;2023-03-13T02:09:41;18.70;;;4.23;;
27145;SDS011;17980;51.744;7.190;2023-03-13T02:12:14;21.80;;;4.03;;
27145;SDS011;17980;51.744;7.190;2023-03-13T02:14:43;23.77;;;3.63;;
27145;SDS011;17980;51.744;7.190;2023-03-13T02:19:48;23.23;;;3.73;;
27145;SDS011;17980;51.744;7.190;2023-03-13T02:22:18;26.90;;;4.37;;
27145;SDS011;17980;51.744;7.190;2023-03-13T02:24:57;19.93;;;3.70;;
27145;SDS011;17980;51.744;7.190;2023-03-13T02:27:28;14.97;;;4.07;;
27145;SDS011;17980;51.744;7.190;2023-03-13T02:29:55;20.77;;;3.97;;
27145;SDS011;17980;51.744;7.190;2023-03-13T02:32:24;24.40;;;4.90;;
27145;SDS011;17980;51.744;7.190;2023-03-13T02:34:55;19.37;;;4.70;;
27145;SDS011;17980;51.744;7.190;2023-03-13T02:37:24;18.17;;;3.83;;
27145;SDS011;17980;51.744;7.190;2023-03-13T02:39:54;17.97;;;5.03;;
27145;SDS011;17980;51.744;7.190;2023-03-13T02:42:24;21.50;;;4.63;;
27145;SDS011;17980;51.744;7.190;2023-03-13T02:44:53;22.07;;;3.90;;
27145;SDS011;17980;51.744;7.190;2023-03-13T02:47:21;18.93;;;4.50;;
27145;SDS011;17980;51.744;7.190;2023-03-13T02:49:59;16.00;;;3.73;;
27145;SDS011;17980;51.744;7.190;2023-03-13T02:52:27;15.47;;;4.27;;
27145;SDS011;17980;51.744;7.190;2023-03-13T02:55:05;15.97;;;4.60;;
27145;SDS011;17980;51.744;7.190;2023-03-13T02:57:35;16.20;;;4.57;;
27145;SDS011;17980;51.744;7.190;2023-03-13T03:00:03;19.13;;;4.77;;
27145;SDS011;17980;51.744;7.190;2023-03-13T03:02:32;15.80;;;4.37;;
27145;SDS011;17980;51.744;7.190;2023-03-13T03:04:59;15.93;;;4.20;;
27145;SDS011;17980;51.744;7.190;2023-03-13T03:07:26;21.37;;;4.60;;
27145;SDS011;17980;51.744;7.190;2023-03-13T03:09:54;16.77;;;5.00;;
27145;SDS011;17980;51.744;7.190;2023-03-13T03:12:21;15.50;;;5.00;;
27145;SDS011;17980;51.744;7.190;2023-03-13T03:14:49;19.47;;;3.93;;
27145;SDS011;17980;51.744;7.190;2023-03-13T03:17:16;20.57;;;5.00;;
27145;SDS011;17980;51.744;7.190;2023-03-13T03:19:43;12.60;;;4.30;;
27145;SDS011;17980;51.744;7.190;2023-03-13T03:22:20;20.73;;;4.63;;
27145;SDS011;17980;51.744;7.190;2023-03-13T03:24:47;22.73;;;4.97;;
27145;SDS011;17980;51.744;7.190;2023-03-13T03:27:24;13.90;;;4.00;;
27145;SDS011;17980;51.744;7.190;2023-03-13T03:29:52;14.27;;;3.67;;
27145;SDS011;17980;51.744;7.190;2023-03-13T03:32:19;13.10;;;3.67;;
27145;SDS011;17980;51.744;7.190;2023-03-13T03:34:46;19.83;;;4.30;;
27145;SDS011;17980;51.744;7.190;2023-03-13T03:37:13;11.53;;;3.80;;
27145;SDS011;17980;51.744;7.190;2023-03-13T03:39:40;14.47;;;4.57;;
27145;SDS011;17980;51.744;7.190;2023-03-13T03:42:08;13.07;;;3.43;;
27145;SDS011;17980;51.744;7.190;2023-03-13T03:44:35;11.63;;;3.73;;
27145;SDS011;17980;51.744;7.190;2023-03-13T03:47:02;16.07;;;3.50;;
27145;SDS011;17980;51.744;7.190;2023-03-13T03:49:30;15.77;;;3.83;;
27145;SDS011;17980;51.744;7.190;2023-03-13T03:52:06;12.57;;;3.43;;
27145;SDS011;17980;51.744;7.190;2023-03-13T03:54:34;9.83;;;2.57;;
27145;SDS011;17980;51.744;7.190;2023-03-13T03:57:10;10.80;;;3.07;;
27145;SDS011;17980;51.744;7.190;2023-03-13T03:59:38;11.67;;;2.47;;
27145;SDS011;17980;51.744;7.190;2023-03-13T04:02:05;11.33;;;3.30;;
27145;SDS011;17980;51.744;7.190;2023-03-13T04:04:32;9.80;;;3.10;;
27145;SDS011;17980;51.744;7.190;2023-03-13T04:06:59;11.43;;;3.87;;
27145;SDS011;17980;51.744;7.190;2023-03-13T04:09:27;12.13;;;3.90;;
27145;SDS011;17980;51.744;7.190;2023-03-13T04:11:54;9.77;;;4.20;;
27145;SDS011;17980;51.744;7.190;2023-03-13T04:14:21;12.13;;;4.40;;
27145;SDS011;17980;51.744;7.190;2023-03-13T04:16:49;8.13;;;4.20;;
27145;SDS011;17980;51.744;7.190;2023-03-13T04:19:16;11.17;;;5.40;;
27145;SDS011;17980;51.744;7.190;2023-03-13T04:21:53;10.50;;;4.50;;
27145;SDS011;17980;51.744;7.190;2023-03-13T04:24:20;15.13;;;5.33;;
27145;SDS011;17980;51.744;7.190;2023-03-13T04:26:56;9.47;;;6.13;;
27145;SDS011;17980;51.744;7.190;2023-03-13T04:29:24;10.77;;;6.13;;
27145;SDS011;17980;51.744;7.190;2023-03-13T04:31:51;14.67;;;6.90;;
27145;SDS011;17980;51.744;7.190;2023-03-13T04:34:18;13.67;;;7.40;;
27145;SDS011;17980;51.744;7.190;2023-03-13T04:36:46;13.27;;;7.23;;
27145;SDS011;17980;51.744;7.190;2023-03-13T04:39:13;17.80;;;9.33;;
27145;SDS011;17980;51.744;7.190;2023-03-13T04:41:40;11.40;;;9.53;;
27145;SDS011;17980;51.744;7.190;2023-03-13T04:44:08;11.70;;;9.57;;
27145;SDS011;17980;51.744;7.190;2023-03-13T04:46:36;15.87;;;11.80;;
27145;SDS011;17980;51.744;7.190;2023-03-13T04:49:13;15.00;;;11.63;;
27145;SDS011;17980;51.744;7.190;2023-03-13T04:51:41;16.83;;;12.17;;
27145;SDS011;17980;51.744;7.190;2023-03-13T04:54:09;19.03;;;13.83;;
27145;SDS011;17980;51.744;7.190;2023-03-13T04:56:46;15.10;;;13.47;;
27145;SDS011;17980;51.744;7.190;2023-03-13T04:59:14;15.47;;;13.87;;
27145;SDS011;17980;51.744;7.190;2023-03-13T05:01:41;15.00;;;13.47;;
27145;SDS011;17980;51.744;7.190;2023-03-13T05:04:09;17.57;;;14.03;;
27145;SDS011;17980;51.744;7.190;2023-03-13T05:06:37;15.00;;;13.43;;
27145;SDS011;17980;51.744;7.190;2023-03-13T05:09:04;12.57;;;11.13;;
27145;SDS011;17980;51.744;7.190;2023-03-13T05:11:31;13.60;;;11.30;;
27145;SDS011;17980;51.744;7.190;2023-03-13T05:13:59;11.47;;;9.87;;
27145;SDS011;17980;51.744;7.190;2023-03-13T05:16:26;10.63;;;9.50;;
27145;SDS011;17980;51.744;7.190;2023-03-13T05:18:53;14.80;;;10.47;;
27145;SDS011;17980;51.744;7.190;2023-03-13T05:21:20;11.13;;;10.03;;
27145;SDS011;17980;51.744;7.190;2023-03-13T05:23:57;11.20;;;8.67;;
27145;SDS011;17980;51.744;7.190;2023-03-13T05:26:24;11.47;;;10.00;;
27145;SDS011;17980;51.744;7.190;2023-03-13T05:29:01;11.30;;;10.13;;
27145;SDS011;17980;51.744;7.190;2023-03-13T05:31:28;11.83;;;10.47;;
27145;SDS011;17980;51.744;7.190;2023-03-13T05:33:55;13.73;;;11.20;;
27145;SDS011;17980;51.744;7.190;2023-03-13T05:36:23;14.40;;;11.57;;
27145;SDS011;17980;51.744;7.190;2023-03-13T05:38:50;13.83;;;11.23;;
27145;SDS011;17980;51.744;7.190;2023-03-13T05:41:17;12.57;;;11.37;;
27145;SDS011;17980;51.744;7.190;2023-03-13T05:43:44;13.60;;;12.07;;
27145;SDS011;17980;51.744;7.190;2023-03-13T05:46:11;13.93;;;12.60;;
27145;SDS011;17980;51.744;7.190;2023-03-13T05:48:48;13.00;;;11.80;;
27145;SDS011;17980;51.744;7.190;2023-03-13T05:51:17;13.53;;;12.23;;
27145;SDS011;17980;51.744;7.190;2023-03-13T05:53:44;13.03;;;11.73;;
27145;SDS011;17980;51.744;7.190;2023-03-13T05:56:21;14.03;;;12.60;;
27145;SDS011;17980;51.744;7.190;2023-03-13T05:58:48;13.23;;;11.93;;
27145;SDS011;17980;51.744;7.190;2023-03-13T06:01:15;12.17;;;10.87;;
27145;SDS011;17980;51.744;7.190;2023-03-13T06:03:43;15.43;;;9.30;;
27145;SDS011;17980;51.744;7.190;2023-03-13T06:06:19;9.27;;;7.77;;
27145;SDS011;17980;51.744;7.190;2023-03-13T06:08:47;9.20;;;8.00;;
27145;SDS011;17980;51.744;7.190;2023-03-13T06:13:50;7.27;;;5.33;;
27145;SDS011;17980;51.744;7.190;2023-03-13T06:16:18;6.73;;;5.43;;
27145;SDS011;17980;51.744;7.190;2023-03-13T06:18:55;5.37;;;4.30;;
27145;SDS011;17980;51.744;7.190;2023-03-13T06:21:23;5.93;;;5.33;;
27145;SDS011;17980;51.744;7.190;2023-03-13T06:23:51;5.03;;;4.50;;
27145;SDS011;17980;51.744;7.190;2023-03-13T06:29:04;4.90;;;4.37;;
27145;SDS011;17980;51.744;7.190;2023-03-13T06:31:31;3.77;;;3.33;;
27145;SDS011;17980;51.744;7.190;2023-03-13T06:33:58;4.50;;;3.97;;
27145;SDS011;17980;51.744;7.190;2023-03-13T06:36:45;5.83;;;3.60;;
27145;SDS011;17980;51.744;7.190;2023-03-13T06:39:13;3.57;;;3.27;;
27145;SDS011;17980;51.744;7.190;2023-03-13T06:41:40;7.43;;;4.13;;
27145;SDS011;17980;51.744;7.190;2023-03-13T06:46:43;5.43;;;2.93;;
27145;SDS011;17980;51.744;7.190;2023-03-13T06:49:10;4.60;;;2.90;;
27145;SDS011;17980;51.744;7.190;2023-03-13T06:51:37;3.33;;;2.70;;
27145;SDS011;17980;51.744;7.190;2023-03-13T06:54:04;6.20;;;3.00;;
27145;SDS011;17980;51.744;7.190;2023-03-13T06:56:41;5.67;;;2.67;;
27145;SDS011;17980;51.744;7.190;2023-03-13T06:59:08;4.97;;;3.17;;
27145;SDS011;17980;51.744;7.190;2023-03-13T07:01:45;2.40;;;2.20;;
27145;SDS011;17980;51.744;7.190;2023-03-13T07:04:12;5.00;;;2.77;;
27145;SDS011;17980;51.744;7.190;2023-03-13T07:06:50;5.03;;;2.10;;
27145;SDS011;17980;51.744;7.190;2023-03-13T07:09:17;4.03;;;2.07;;
27145;SDS011;17980;51.744;7.190;2023-03-13T07:11:44;4.23;;;2.17;;
27145;SDS011;17980;51.744;7.190;2023-03-13T07:14:12;3.70;;;2.50;;
27145;SDS011;17980;51.744;7.190;2023-03-13T07:16:49;3.60;;;2.20;;
27145;SDS011;17980;51.744;7.190;2023-03-13T07:19:16;4.00;;;1.77;;
27145;SDS011;17980;51.744;7.190;2023-03-13T07:21:53;4.80;;;1.83;;
27145;SDS011;17980;51.744;7.190;2023-03-13T07:24:21;2.20;;;1.50;;
27145;SDS011;17980;51.744;7.190;2023-03-13T07:27:04;3.00;;;1.53;;
27145;SDS011;17980;51.744;7.190;2023-03-13T07:29:32;5.73;;;2.43;;
27145;SDS011;17980;51.744;7.190;2023-03-13T07:31:59;3.83;;;1.80;;
27145;SDS011;17980;51.744;7.190;2023-03-13T07:34:26;4.90;;;1.70;;
27145;SDS011;17980;51.744;7.190;2023-03-13T07:37:03;7.77;;;1.93;;
27145;SDS011;17980;51.744;7.190;2023-03-13T07:39:30;4.23;;;1.50;;
27145;SDS011;17980;51.744;7.190;2023-03-13T07:41:58;3.77;;;1.43;;
27145;SDS011;17980;51.744;7.190;2023-03-13T07:44:25;2.33;;;1.30;;
27145;SDS011;17980;51.744;7.190;2023-03-13T07:47:02;2.83;;;1.37;;
27145;SDS011;17980;51.744;7.190;2023-03-13T07:49:29;4.33;;;1.33;;
27145;SDS011;17980;51.744;7.190;2023-03-13T07:51:56;4.80;;;1.90;;
27145;SDS011;17980;51.744;7.190;2023-03-13T07:54:24;4.00;;;1.60;;
27145;SDS011;17980;51.744;7.190;2023-03-13T07:57:01;5.03;;;1.40;;
27145;SDS011;17980;51.744;7.190;2023-03-13T07:59:28;3.97;;;1.47;;
27145;SDS011;17980;51.744;7.190;2023-03-13T08:01:56;4.70;;;1.33;;
27145;SDS011;17980;51.744;7.190;2023-03-13T08:04:23;7.43;;;1.40;;
27145;SDS011;17980;51.744;7.190;2023-03-13T08:07:00;4.57;;;1.67;;
27145;SDS011;17980;51.744;7.190;2023-03-13T08:09:30;3.83;;;1.53;;
27145;SDS011;17980;51.744;7.190;2023-03-13T08:11:58;4.53;;;1.30;;
27145;SDS011;17980;51.744;7.190;2023-03-13T08:14:25;2.90;;;1.33;;
27145;SDS011;17980;51.744;7.190;2023-03-13T08:17:02;3.33;;;1.80;;
27145;SDS011;17980;51.744;7.190;2023-03-13T08:19:30;6.77;;;1.60;;
27145;SDS011;17980;51.744;7.190;2023-03-13T08:22:06;3.13;;;1.30;;
27145;SDS011;17980;51.744;7.190;2023-03-13T08:24:34;6.10;;;1.30;;
27145;SDS011;17980;51.744;7.190;2023-03-13T08:29:46;5.57;;;1.37;;
27145;SDS011;17980;51.744;7.190;2023-03-13T08:32:14;4.03;;;1.53;;
27145;SDS011;17980;51.744;7.190;2023-03-13T08:34:51;3.80;;;1.70;;
27145;SDS011;17980;51.744;7.190;2023-03-13T08:39:54;3.93;;;1.67;;
27145;SDS011;17980;51.744;7.190;2023-03-13T08:42:21;4.33;;;1.73;;
27145;SDS011;17980;51.744;7.190;2023-03-13T08:44:58;5.20;;;1.57;;
27145;SDS011;17980;51.744;7.190;2023-03-13T08:47:25;5.43;;;1.70;;
27145;SDS011;17980;51.744;7.190;2023-03-13T08:49:53;5.57;;;1.70;;
27145;SDS011;17980;51.744;7.190;2023-03-13T08:52:20;8.60;;;1.67;;
27145;SDS011;17980;51.744;7.190;2023-03-13T08:54:57;5.50;;;1.87;;
27145;SDS011;17980;51.744;7.190;2023-03-13T08:57:24;5.27;;;1.97;;
27145;SDS011;17980;51.744;7.190;2023-03-13T08:59:51;4.97;;;1.50;;
27145;SDS011;17980;51.744;7.190;2023-03-13T09:02:19;5.17;;;1.70;;
27145;SDS011;17980;51.744;7.190;2023-03-13T09:04:56;6.37;;;1.80;;
27145;SDS011;17980;51.744;7.190;2023-03-13T09:07:23;5.10;;;1.67;;
27145;SDS011;17980;51.744;7.190;2023-03-13T09:09:50;4.67;;;1.50;;
27145;SDS011;17980;51.744;7.190;2023-03-13T09:12:29;3.97;;;1.47;;
27145;SDS011;17980;51.744;7.190;2023-03-13T09:14:57;7.13;;;1.63;;
27145;SDS011;17980;51.744;7.190;2023-03-13T09:17:34;7.03;;;1.40;;
27145;SDS011;17980;51.744;7.190;2023-03-13T09:20:01;6.13;;;1.50;;
27145;SDS011;17980;51.744;7.190;2023-03-13T09:22:38;4.90;;;1.10;;
27145;SDS011;17980;51.744;7.190;2023-03-13T09:25:06;6.10;;;1.87;;
27145;SDS011;17980;51.744;7.190;2023-03-13T09:27:43;7.43;;;1.47;;
27145;SDS011;17980;51.744;7.190;2023-03-13T09:30:11;3.93;;;1.33;;
27145;SDS011;17980;51.744;7.190;2023-03-13T09:32:39;4.57;;;1.20;;
27145;SDS011;17980;51.744;7.190;2023-03-13T09:35:16;2.93;;;1.40;;
27145;SDS011;17980;51.744;7.190;2023-03-13T09:37:43;6.00;;;1.83;;
27145;SDS011;17980;51.744;7.190;2023-03-13T09:40:13;4.60;;;1.10;;
27145;SDS011;17980;51.744;7.190;2023-03-13T09:42:43;4.73;;;1.10;;
27145;SDS011;17980;51.744;7.190;2023-03-13T09:45:22;4.57;;;1.07;;
27145;SDS011;17980;51.744;7.190;2023-03-13T09:47:53;4.77;;;0.97;;
27145;SDS011;17980;51.744;7.190;2023-03-13T09:50:33;6.47;;;1.50;;
27145;SDS011;17980;51.744;7.190;2023-03-13T09:53:03;2.90;;;1.10;;
27145;SDS011;17980;51.744;7.190;2023-03-13T09:55:43;3.37;;;1.30;;
27145;SDS011;17980;51.744;7.190;2023-03-13T09:58:12;6.70;;;1.20;;
27145;SDS011;17980;51.744;7.190;2023-03-13T10:00:50;5.00;;;1.20;;
27145;SDS011;17980;51.744;7.190;2023-03-13T10:03:22;10.40;;;1.20;;
27145;SDS011;17980;51.744;7.190;2023-03-13T10:05:53;2.80;;;1.10;;
27145;SDS011;17980;51.744;7.190;2023-03-13T10:08:31;2.60;;;1.20;;
27145;SDS011;17980;51.744;7.190;2023-03-13T10:11:01;3.47;;;1.40;;
27145;SDS011;17980;51.744;7.190;2023-03-13T10:13:33;2.80;;;0.80;;
27145;SDS011;17980;51.744;7.190;2023-03-13T10:16:10;7.57;;;1.40;;
27145;SDS011;17980;51.744;7.190;2023-03-13T10:18:42;3.67;;;1.00;;
27145;SDS011;17980;51.744;7.190;2023-03-13T10:21:15;3.57;;;1.00;;
27145;SDS011;17980;51.744;7.190;2023-03-13T10:23:45;2.47;;;0.93;;
27145;SDS011;17980;51.744;7.190;2023-03-13T10:26:14;5.00;;;1.33;;
27145;SDS011;17980;51.744;7.190;2023-03-13T10:28:52;6.47;;;1.20;;
27145;SDS011;17980;51.744;7.190;2023-03-13T10:31:22;4.87;;;1.40;;
27145;SDS011;17980;51.744;7.190;2023-03-13T10:34:06;3.50;;;1.10;;
27145;SDS011;17980;51.744;7.190;2023-03-13T10:36:38;2.40;;;1.40;;
27145;SDS011;17980;51.744;7.190;2023-03-13T10:39:16;2.80;;;0.90;;
27145;SDS011;17980;51.744;7.190;2023-03-13T10:41:45;3.00;;;0.90;;
27145;SDS011;17980;51.744;7.190;2023-03-13T10:44:15;3.23;;;1.30;;
27145;SDS011;17980;51.744;7.190;2023-03-13T10:46:52;2.03;;;0.90;;
27145;SDS011;17980;51.744;7.190;2023-03-13T10:49:23;3.07;;;1.00;;
27145;SDS011;17980;51.744;7.190;2023-03-13T10:52:00;3.53;;;1.10;;
27145;SDS011;17980;51.744;7.190;2023-03-13T10:54:30;5.03;;;0.87;;
27145;SDS011;17980;51.744;7.190;2023-03-13T10:57:16;2.73;;;0.80;;
27145;SDS011;17980;51.744;7.190;2023-03-13T10:59:48;1.83;;;0.80;;
27145;SDS011;17980;51.744;7.190;2023-03-13T11:02:20;3.13;;;0.87;;
27145;SDS011;17980;51.744;7.190;2023-03-13T11:05:01;3.57;;;1.17;;
27145;SDS011;17980;51.744;7.190;2023-03-13T11:07:32;3.57;;;0.90;;
27145;SDS011;17980;51.744;7.190;2023-03-13T11:10:15;5.10;;;0.80;;
27145;SDS011;17980;51.744;7.190;2023-03-13T11:12:44;6.27;;;0.90;;
27145;SDS011;17980;51.744;7.190;2023-03-13T11:15:22;1.27;;;0.70;;
27145;SDS011;17980;51.744;7.190;2023-03-13T11:17:54;2.97;;;0.90;;
27145;SDS011;17980;51.744;7.190;2023-03-13T11:20:34;2.40;;;0.60;;
27145;SDS011;17980;51.744;7.190;2023-03-13T11:23:07;5.30;;;0.70;;
27145;SDS011;17980;51.744;7.190;2023-03-13T11:25:48;3.80;;;1.50;;
27145;SDS011;17980;51.744;7.190;2023-03-13T11:28:21;1.67;;;0.80;;
27145;SDS011;17980;51.744;7.190;2023-03-13T11:30:59;10.50;;;0.97;;
27145;SDS011;17980;51.744;7.190;2023-03-13T11:33:46;1.00;;;0.80;;
27145;SDS011;17980;51.744;7.190;2023-03-13T11:36:20;4.63;;;0.90;;
27145;SDS011;17980;51.744;7.190;2023-03-13T11:39:00;1.47;;;1.00;;
27145;SDS011;17980;51.744;7.190;2023-03-13T11:41:35;3.00;;;0.83;;
27145;SDS011;17980;51.744;7.190;2023-03-13T11:44:17;6.00;;;0.90;;
27145;SDS011;17980;51.744;7.190;2023-03-13T11:47:07;1.93;;;0.80;;
27145;SDS011;17980;51.744;7.190;2023-03-13T11:49:51;1.70;;;0.80;;
27145;SDS011;17980;51.744;7.190;2023-03-13T11:55:40;1.80;;;0.80;;
27145;SDS011;17980;51.744;7.190;2023-03-13T11:58:21;2.47;;;0.90;;
27145;SDS011;17980;51.744;7.190;2023-03-13T12:03:32;3.87;;;0.70;;
27145;SDS011;17980;51.744;7.190;2023-03-13T12:06:03;3.27;;;0.63;;
27145;SDS011;17980;51.744;7.190;2023-03-13T12:08:42;3.63;;;0.80;;
27145;SDS011;17980;51.744;7.190;2023-03-13T12:11:15;2.60;;;0.50;;
27145;SDS011;17980;51.744;7.190;2023-03-13T12:13:53;1.27;;;0.50;;
27145;SDS011;17980;51.744;7.190;2023-03-13T12:16:25;2.43;;;0.70;;
27145;SDS011;17980;51.744;7.190;2023-03-13T12:19:08;3.60;;;0.53;;
27145;SDS011;17980;51.744;7.190;2023-03-13T12:21:39;4.33;;;0.50;;
27145;SDS011;17980;51.744;7.190;2023-03-13T12:24:20;0.60;;;0.50;;
27145;SDS011;17980;51.744;7.190;2023-03-13T12:26:51;1.67;;;0.60;;
27145;SDS011;17980;51.744;7.190;2023-03-13T12:29:34;0.50;;;0.50;;
27145;SDS011;17980;51.744;7.190;2023-03-13T12:32:07;3.30;;;0.50;;
27145;SDS011;17980;51.744;7.190;2023-03-13T12:34:49;4.70;;;0.50;;
27145;SDS011;17980;51.744;7.190;2023-03-13T12:37:20;2.47;;;0.70;;
27145;SDS011;17980;51.744;7.190;2023-03-13T12:39:52;2.80;;;0.40;;
27145;SDS011;17980;51.744;7.190;2023-03-13T12:42:35;1.93;;;0.40;;
27145;SDS011;17980;51.744;7.190;2023-03-13T12:45:09;0.90;;;0.43;;
27145;SDS011;17980;51.744;7.190;2023-03-13T12:50:43;1.70;;;0.40;;
27145;SDS011;17980;51.744;7.190;2023-03-13T12:53:26;2.63;;;0.47;;
27145;SDS011;17980;51.744;7.190;2023-03-13T12:56:14;1.77;;;0.93;;
27145;SDS011;17980;51.744;7.190;2023-03-13T12:58:51;2.03;;;0.80;;
27145;SDS011;17980;51.744;7.190;2023-03-13T13:01:25;3.27;;;0.50;;
27145;SDS011;17980;51.744;7.190;2023-03-13T13:03:57;0.90;;;0.50;;
27145;SDS011;17980;51.744;7.190;2023-03-13T13:09:36;0.43;;;0.30;;
27145;SDS011;17980;51.744;7.190;2023-03-13T13:12:11;1.03;;;0.40;;
27145;SDS011;17980;51.744;7.190;2023-03-13T13:14:58;0.60;;;0.20;;
27145;SDS011;17980;51.744;7.190;2023-03-13T13:17:32;1.23;;;0.33;;
27145;SDS011;17980;51.744;7.190;2023-03-13T13:22:55;2.80;;;0.30;;
27145;SDS011;17980;51.744;7.190;2023-03-13T13:25:32;1.07;;;0.40;;
27145;SDS011;17980;51.744;7.190;2023-03-13T13:31:42;5.07;;;0.50;;
27145;SDS011;17980;51.744;7.190;2023-03-13T13:37:25;1.73;;;0.40;;
27145;SDS011;17980;51.744;7.190;2023-03-13T13:40:18;4.43;;;0.37;;
27145;SDS011;17980;51.744;7.190;2023-03-13T13:42:49;1.10;;;0.30;;
27145;SDS011;17980;51.744;7.190;2023-03-13T13:45:31;4.00;;;0.30;;
27145;SDS011;17980;51.744;7.190;2023-03-13T13:48:13;0.93;;;0.40;;
27145;SDS011;17980;51.744;7.190;2023-03-13T13:53:57;0.30;;;0.30;;
27145;SDS011;17980;51.744;7.190;2023-03-13T13:56:36;3.73;;;0.40;;
27145;SDS011;17980;51.744;7.190;2023-03-13T13:59:14;1.10;;;0.37;;
27145;SDS011;17980;51.744;7.190;2023-03-13T14:02:19;3.10;;;0.50;;
27145;SDS011;17980;51.744;7.190;2023-03-13T14:04:52;1.90;;;0.40;;
27145;SDS011;17980;51.744;7.190;2023-03-13T14:10:31;3.90;;;0.30;;
27145;SDS011;17980;51.744;7.190;2023-03-13T14:13:10;2.83;;;0.30;;
27145;SDS011;17980;51.744;7.190;2023-03-13T14:15:48;1.20;;;0.30;;
27145;SDS011;17980;51.744;7.190;2023-03-13T14:18:19;0.90;;;0.50;;
27145;SDS011;17980;51.744;7.190;2023-03-13T14:21:04;0.67;;;0.30;;
27145;SDS011;17980;51.744;7.190;2023-03-13T14:23:36;0.53;;;0.20;;
27145;SDS011;17980;51.744;7.190;2023-03-13T14:26:14;0.97;;;0.30;;
27145;SDS011;17980;51.744;7.190;2023-03-13T14:31:26;0.40;;;0.23;;
27145;SDS011;17980;51.744;7.190;2023-03-13T14:33:55;0.70;;;0.30;;
27145;SDS011;17980;51.744;7.190;2023-03-13T14:36:44;0.70;;;0.30;;
27145;SDS011;17980;51.744;7.190;2023-03-13T14:39:15;0.37;;;0.30;;
27145;SDS011;17980;51.744;7.190;2023-03-13T14:41:44;2.40;;;0.40;;
27145;SDS011;17980;51.744;7.190;2023-03-13T14:46:59;1.13;;;0.30;;
27145;SDS011;17980;51.744;7.190;2023-03-13T14:49:29;1.30;;;0.40;;
27145;SDS011;17980;51.744;7.190;2023-03-13T14:51:58;1.77;;;0.30;;
27145;SDS011;17980;51.744;7.190;2023-03-13T14:54:29;0.37;;;0.30;;
27145;SDS011;17980;51.744;7.190;2023-03-13T14:57:13;0.93;;;0.57;;
27145;SDS011;17980;51.744;7.190;2023-03-13T14:59:45;2.60;;;0.40;;
27145;SDS011;17980;51.744;7.190;2023-03-13T15:02:14;0.50;;;0.30;;
27145;SDS011;17980;51.744;7.190;2023-03-13T15:04:55;2.07;;;0.63;;
27145;SDS011;17980;51.744;7.190;2023-03-13T15:07:24;2.67;;;1.10;;
27145;SDS011;17980;51.744;7.190;2023-03-13T15:09:54;27.60;;;17.27;;
27145;SDS011;17980;51.744;7.190;2023-03-13T15:15:08;1.07;;;0.30;;
27145;SDS011;17980;51.744;7.190;2023-03-13T15:20:12;2.23;;;0.40;;
27145;SDS011;17980;51.744;7.190;2023-03-13T15:22:41;1.57;;;0.50;;
27145;SDS011;17980;51.744;7.190;2023-03-13T15:25:19;1.87;;;0.30;;
27145;SDS011;17980;51.744;7.190;2023-03-13T15:27:47;2.17;;;0.40;;
27145;SDS011;17980;51.744;7.190;2023-03-13T15:32:51;1.50;;;0.40;;
27145;SDS011;17980;51.744;7.190;2023-03-13T15:35:23;2.50;;;0.40;;
27145;SDS011;17980;51.744;7.190;2023-03-13T15:38:01;3.53;;;0.30;;
27145;SDS011;17980;51.744;7.190;2023-03-13T15:40:28;1.00;;;0.50;;
27145;SDS011;17980;51.744;7.190;2023-03-13T15:42:56;0.60;;;0.40;;
27145;SDS011;17980;51.744;7.190;2023-03-13T15:45:32;0.80;;;0.53;;
27145;SDS011;17980;51.744;7.190;2023-03-13T15:48:01;2.73;;;0.70;;
27145;SDS011;17980;51.744;7.190;2023-03-13T15:50:30;1.93;;;0.50;;
27145;SDS011;17980;51.744;7.190;2023-03-13T15:52:57;1.00;;;0.50;;
27145;SDS011;17980;51.744;7.190;2023-03-13T15:55:34;3.23;;;0.80;;
27145;SDS011;17980;51.744;7.190;2023-03-13T15:58:03;0.93;;;0.40;;
27145;SDS011;17980;51.744;7.190;2023-03-13T16:00:30;3.33;;;0.60;;
27145;SDS011;17980;51.744;7.190;2023-03-13T16:03:08;1.83;;;0.63;;
27145;SDS011;17980;51.744;7.190;2023-03-13T16:05:40;1.30;;;0.53;;
27145;SDS011;17980;51.744;7.190;2023-03-13T16:08:17;2.03;;;1.00;;
27145;SDS011;17980;51.744;7.190;2023-03-13T16:10:47;3.77;;;0.67;;
27145;SDS011;17980;51.744;7.190;2023-03-13T16:13:15;1.97;;;0.60;;